Time;durP1;ratioP1;P1;durP2;ratioP2;P2;SDS_P1;SDS_P2;PMS_P1;PMS_P2;Temp;Humidity;BMP_temperature;BMP_pressure;BME280_temperature;BME280_humidity;BME280_pressure;Samples;Min_cycle;Max_cycle;Signal;HPM_P1;HPM_P2
2022/07/10 00:01:33;;;;;;;5.80;2.13;;;;;;;;;;5068260;28;20489;-69
2022/07/10 00:04:00;;;;;;;3.28;2.40;;;;;;;;;;5069084;28;20037;-70
2022/07/10 00:06:26;;;;;;;5.90;2.42;;;;;;;;;;5070451;28;20557;-69
2022/07/10 00:08:54;;;;;;;4.80;2.60;;;;;;;;;;5068170;28;20141;-69
2022/07/10 00:11:21;;;;;;;5.03;2.20;;;;;;;;;;5068198;28;20033;-69
2022/07/10 00:13:47;;;;;;;5.07;2.20;;;;;;;;;;5068092;28;20046;-69
2022/07/10 00:16:13;;;;;;;4.18;2.45;;;;;;;;;;5068035;28;20079;-69
2022/07/10 00:18:39;;;;;;;2.65;2.10;;;;;;;;;;5070947;28;20029;-69
2022/07/10 00:21:06;;;;;;;4.05;2.50;;;;;;;;;;5068339;28;20036;-69
2022/07/10 00:23:32;;;;;;;2.65;2.17;;;;;;;;;;5070306;28;20021;-69
2022/07/10 00:25:58;;;;;;;4.22;2.40;;;;;;;;;;5069734;28;20028;-69
2022/07/10 00:28:25;;;;;;;5.20;2.50;;;;;;;;;;5069450;28;20496;-69
2022/07/10 00:30:51;;;;;;;6.75;2.30;;;;;;;;;;5067802;28;20016;-68
2022/07/10 00:33:17;;;;;;;5.60;2.25;;;;;;;;;;5070857;28;20025;-69
2022/07/10 00:35:44;;;;;;;3.47;2.40;;;;;;;;;;5069431;28;20021;-69
2022/07/10 00:38:10;;;;;;;2.75;2.15;;;;;;;;;;5069596;28;20428;-69
2022/07/10 00:40:37;;;;;;;3.72;2.00;;;;;;;;;;5069920;28;20073;-70
2022/07/10 00:43:03;;;;;;;5.00;2.17;;;;;;;;;;5069536;28;20027;-69
2022/07/10 00:45:29;;;;;;;4.50;2.10;;;;;;;;;;5086394;28;20039;-69
2022/07/10 00:47:56;;;;;;;3.17;2.20;;;;;;;;;;5069587;28;20024;-69
2022/07/10 00:50:22;;;;;;;3.15;2.22;;;;;;;;;;5069775;28;20029;-69
2022/07/10 00:52:48;;;;;;;2.80;2.40;;;;;;;;;;5069504;28;20024;-69
2022/07/10 00:55:16;;;;;;;3.50;2.22;;;;;;;;;;5069471;28;20055;-69
2022/07/10 00:57:42;;;;;;;5.20;2.33;;;;;;;;;;5070148;28;20024;-69
2022/07/10 01:00:11;;;;;;;3.25;1.98;;;;;;;;;;5069664;28;20501;-69
2022/07/10 01:02:41;;;;;;;3.25;2.25;;;;;;;;;;5069631;28;20058;-69
2022/07/10 01:05:08;;;;;;;3.22;2.38;;;;;;;;;;5069487;28;20032;-69
2022/07/10 01:07:34;;;;;;;2.95;2.45;;;;;;;;;;5068996;28;20404;-67
2022/07/10 01:10:02;;;;;;;6.05;2.05;;;;;;;;;;5069557;28;20037;-68
2022/07/10 01:12:28;;;;;;;5.70;2.67;;;;;;;;;;5073998;28;20036;-68
2022/07/10 01:14:55;;;;;;;2.97;2.13;;;;;;;;;;5072362;28;20021;-67
2022/07/10 01:17:22;;;;;;;3.28;2.40;;;;;;;;;;5072602;28;20036;-68
2022/07/10 01:19:48;;;;;;;4.75;2.45;;;;;;;;;;5072532;28;20032;-68
2022/07/10 01:22:15;;;;;;;3.10;2.40;;;;;;;;;;5072980;28;20024;-68
2022/07/10 01:24:41;;;;;;;5.80;2.15;;;;;;;;;;5073491;28;20035;-68
2022/07/10 01:27:08;;;;;;;4.35;2.55;;;;;;;;;;5073276;28;20033;-67
2022/07/10 01:29:36;;;;;;;4.85;2.38;;;;;;;;;;5072154;28;20023;-67
2022/07/10 01:32:02;;;;;;;3.70;2.50;;;;;;;;;;5072689;28;20029;-67
2022/07/10 01:34:29;;;;;;;5.63;2.30;;;;;;;;;;5072750;28;20035;-68
2022/07/10 01:36:55;;;;;;;5.43;2.63;;;;;;;;;;5072312;28;20025;-68
2022/07/10 01:39:22;;;;;;;5.28;2.70;;;;;;;;;;5073927;28;20077;-68
2022/07/10 01:41:48;;;;;;;2.80;2.40;;;;;;;;;;5072614;28;20028;-68
2022/07/10 01:44:14;;;;;;;5.20;2.22;;;;;;;;;;5069303;28;20029;-67
2022/07/10 01:46:45;;;;;;;2.92;2.38;;;;;;;;;;5072592;28;20038;-69
2022/07/10 01:49:11;;;;;;;2.85;2.40;;;;;;;;;;5071944;28;20023;-68
2022/07/10 01:51:38;;;;;;;3.50;2.35;;;;;;;;;;5072296;28;20028;-68
2022/07/10 01:54:04;;;;;;;3.53;2.53;;;;;;;;;;5072493;28;20039;-68
2022/07/10 01:56:31;;;;;;;3.88;2.17;;;;;;;;;;5071892;28;20054;-68
2022/07/10 01:58:57;;;;;;;6.50;2.40;;;;;;;;;;5071781;28;20021;-68
2022/07/10 02:01:23;;;;;;;2.50;2.30;;;;;;;;;;5072450;28;20089;-68
2022/07/10 02:06:35;;;;;;;4.22;2.60;;;;;;;;;;5073185;28;20016;-67
2022/07/10 02:09:01;;;;;;;5.50;2.90;;;;;;;;;;5071818;28;20045;-68
2022/07/10 02:11:27;;;;;;;5.00;2.85;;;;;;;;;;5071301;28;20037;-67
2022/07/10 02:13:53;;;;;;;3.85;2.58;;;;;;;;;;5072014;28;20028;-67
2022/07/10 02:16:20;;;;;;;2.65;2.25;;;;;;;;;;5071669;28;20008;-68
2022/07/10 02:18:46;;;;;;;3.33;2.67;;;;;;;;;;5071852;28;20020;-68
2022/07/10 02:21:12;;;;;;;4.03;2.65;;;;;;;;;;5072666;28;20031;-68
2022/07/10 02:23:40;;;;;;;7.28;2.85;;;;;;;;;;5071072;28;20016;-69
2022/07/10 02:26:07;;;;;;;4.75;2.72;;;;;;;;;;5070975;28;20366;-68
2022/07/10 02:28:33;;;;;;;5.35;2.75;;;;;;;;;;5071467;28;20378;-68
2022/07/10 02:30:59;;;;;;;5.28;2.40;;;;;;;;;;5071267;28;20033;-67
2022/07/10 02:33:26;;;;;;;8.13;2.60;;;;;;;;;;5072717;28;20028;-68
2022/07/10 02:35:52;;;;;;;5.60;2.63;;;;;;;;;;5071238;28;20016;-67
2022/07/10 02:38:19;;;;;;;4.70;2.70;;;;;;;;;;5071160;28;20033;-68
2022/07/10 02:40:45;;;;;;;2.85;2.53;;;;;;;;;;5070934;28;20026;-68
2022/07/10 02:43:11;;;;;;;4.53;2.60;;;;;;;;;;5070218;28;20039;-69
2022/07/10 02:45:38;;;;;;;4.43;2.90;;;;;;;;;;5072365;28;20400;-68
2022/07/10 02:48:05;;;;;;;6.97;2.58;;;;;;;;;;5071395;28;20020;-68
2022/07/10 02:50:31;;;;;;;6.63;2.55;;;;;;;;;;5070984;28;20036;-68
2022/07/10 02:52:57;;;;;;;3.92;2.58;;;;;;;;;;5071266;28;20032;-68
2022/07/10 02:55:24;;;;;;;8.32;2.50;;;;;;;;;;5070934;28;20027;-68
2022/07/10 02:57:50;;;;;;;3.10;2.53;;;;;;;;;;5070808;28;20047;-68
2022/07/10 03:00:16;;;;;;;3.03;2.25;;;;;;;;;;5071910;28;20081;-68
2022/07/10 03:02:42;;;;;;;4.20;2.70;;;;;;;;;;5070906;28;20028;-68
2022/07/10 03:05:09;;;;;;;4.93;2.78;;;;;;;;;;5070532;28;20023;-67
2022/07/10 03:07:35;;;;;;;5.03;2.60;;;;;;;;;;5070201;28;20408;-68
2022/07/10 03:10:01;;;;;;;5.78;2.78;;;;;;;;;;5070552;28;20020;-68
2022/07/10 03:12:28;;;;;;;3.25;2.30;;;;;;;;;;5071767;28;20025;-67
2022/07/10 03:14:54;;;;;;;5.88;2.80;;;;;;;;;;5070419;28;20396;-68
2022/07/10 03:17:20;;;;;;;3.20;2.40;;;;;;;;;;5069319;28;20036;-69
2022/07/10 03:19:47;;;;;;;5.93;2.60;;;;;;;;;;5070494;28;20400;-67
2022/07/10 03:22:13;;;;;;;3.00;2.35;;;;;;;;;;5070664;28;20028;-67
2022/07/10 03:24:39;;;;;;;4.97;2.85;;;;;;;;;;5071221;28;20021;-68
2022/07/10 03:27:06;;;;;;;3.50;2.45;;;;;;;;;;5070402;28;20021;-69
2022/07/10 03:29:32;;;;;;;3.13;2.53;;;;;;;;;;5070169;28;20032;-68
2022/07/10 03:31:59;;;;;;;3.58;2.53;;;;;;;;;;5070497;28;20020;-67
2022/07/10 03:34:25;;;;;;;4.13;2.72;;;;;;;;;;5069977;28;20016;-68
2022/07/10 03:36:51;;;;;;;2.60;2.40;;;;;;;;;;5070838;28;20503;-68
2022/07/10 03:39:18;;;;;;;3.25;2.35;;;;;;;;;;5071001;28;20027;-68
2022/07/10 03:41:44;;;;;;;2.95;2.55;;;;;;;;;;5070370;28;20031;-69
2022/07/10 03:44:10;;;;;;;3.45;2.40;;;;;;;;;;5070251;28;20027;-68
2022/07/10 03:46:36;;;;;;;3.13;2.70;;;;;;;;;;5069957;28;20016;-69
2022/07/10 03:49:03;;;;;;;3.63;2.70;;;;;;;;;;5070103;28;20040;-68
2022/07/10 03:51:29;;;;;;;4.93;2.58;;;;;;;;;;5071205;28;20020;-69
2022/07/10 03:53:55;;;;;;;4.45;3.00;;;;;;;;;;5069944;28;20037;-68
2022/07/10 03:59:07;;;;;;;3.78;2.58;;;;;;;;;;5068394;28;20033;-68
2022/07/10 04:01:33;;;;;;;4.65;2.72;;;;;;;;;;5070038;28;20035;-68
2022/07/10 04:03:59;;;;;;;3.15;2.83;;;;;;;;;;5070073;28;20028;-69
2022/07/10 04:06:26;;;;;;;7.22;2.45;;;;;;;;;;5071046;28;20457;-68
2022/07/10 04:08:52;;;;;;;5.68;2.60;;;;;;;;;;5069309;28;20038;-69
2022/07/10 04:11:18;;;;;;;5.35;2.95;;;;;;;;;;5067319;28;20024;-69
2022/07/10 04:13:44;;;;;;;3.25;2.70;;;;;;;;;;5069942;28;20024;-68
2022/07/10 04:16:12;;;;;;;6.30;3.03;;;;;;;;;;5069461;28;20033;-68
2022/07/10 04:18:42;;;;;;;3.92;2.75;;;;;;;;;;5068481;28;20024;-69
2022/07/10 04:21:08;;;;;;;4.72;2.67;;;;;;;;;;5070234;28;20392;-68
2022/07/10 04:23:34;;;;;;;3.95;2.83;;;;;;;;;;5069109;28;20030;-68
2022/07/10 04:26:01;;;;;;;2.58;2.38;;;;;;;;;;5069870;28;20024;-68
2022/07/10 04:28:28;;;;;;;5.05;2.50;;;;;;;;;;5069583;28;20036;-68
2022/07/10 04:30:54;;;;;;;3.45;2.72;;;;;;;;;;5069747;28;20407;-69
2022/07/10 04:33:20;;;;;;;3.33;3.03;;;;;;;;;;5068828;28;20038;-69
2022/07/10 04:35:46;;;;;;;4.47;2.85;;;;;;;;;;5069485;28;20600;-68
2022/07/10 04:38:13;;;;;;;3.55;2.90;;;;;;;;;;5069151;28;20037;-68
2022/07/10 04:40:39;;;;;;;4.68;3.10;;;;;;;;;;5066921;28;20381;-68
2022/07/10 04:43:06;;;;;;;4.45;2.97;;;;;;;;;;5069726;28;20027;-68
2022/07/10 04:45:32;;;;;;;7.40;2.97;;;;;;;;;;5071742;28;20419;-69
2022/07/10 04:47:58;;;;;;;3.08;2.50;;;;;;;;;;5073361;28;20495;-69
2022/07/10 04:50:25;;;;;;;5.95;2.70;;;;;;;;;;5073655;28;20081;-69
2022/07/10 04:52:51;;;;;;;4.80;2.60;;;;;;;;;;5072784;28;20415;-69
2022/07/10 04:55:17;;;;;;;4.43;2.60;;;;;;;;;;5073459;28;20021;-68
2022/07/10 04:57:44;;;;;;;3.97;2.42;;;;;;;;;;5073817;28;20021;-69
2022/07/10 05:00:11;;;;;;;3.95;2.60;;;;;;;;;;5074335;28;20027;-68
2022/07/10 05:02:37;;;;;;;6.18;3.10;;;;;;;;;;5072874;28;20032;-68
2022/07/10 05:05:03;;;;;;;7.22;2.78;;;;;;;;;;5073117;28;20035;-68
2022/07/10 05:07:30;;;;;;;6.10;2.70;;;;;;;;;;5072685;28;20362;-69
2022/07/10 05:09:56;;;;;;;4.40;2.90;;;;;;;;;;5073036;28;20028;-68
2022/07/10 05:12:22;;;;;;;5.40;2.70;;;;;;;;;;5074408;28;20013;-68
2022/07/10 05:14:49;;;;;;;4.15;3.30;;;;;;;;;;5072731;28;20474;-69
2022/07/10 05:17:15;;;;;;;4.97;3.40;;;;;;;;;;5072600;28;20094;-69
2022/07/10 05:19:41;;;;;;;9.32;3.47;;;;;;;;;;5072830;28;20019;-68
2022/07/10 05:22:09;;;;;;;9.25;3.05;;;;;;;;;;5073385;28;20025;-68
2022/07/10 05:24:35;;;;;;;5.35;3.33;;;;;;;;;;5089403;28;20029;-69
2022/07/10 05:27:02;;;;;;;3.97;3.20;;;;;;;;;;5073054;28;20029;-69
2022/07/10 05:29:28;;;;;;;5.25;3.08;;;;;;;;;;5072948;28;20029;-68
2022/07/10 05:31:54;;;;;;;5.20;2.88;;;;;;;;;;5072666;28;20511;-68
2022/07/10 05:34:21;;;;;;;5.30;2.97;;;;;;;;;;5069459;28;20019;-68
2022/07/10 05:36:47;;;;;;;4.55;3.40;;;;;;;;;;5072483;28;20632;-68
2022/07/10 05:39:13;;;;;;;6.82;3.20;;;;;;;;;;5073738;28;20049;-69
2022/07/10 05:41:40;;;;;;;7.25;2.85;;;;;;;;;;5071971;28;20487;-69
2022/07/10 05:44:06;;;;;;;5.18;3.25;;;;;;;;;;5072396;28;20025;-69
2022/07/10 05:46:32;;;;;;;4.15;3.00;;;;;;;;;;5072728;28;20042;-69
2022/07/10 05:48:59;;;;;;;4.55;2.90;;;;;;;;;;5072543;28;20024;-69
2022/07/10 05:51:25;;;;;;;3.65;3.00;;;;;;;;;;5073536;28;20023;-68
2022/07/10 05:53:52;;;;;;;3.60;3.25;;;;;;;;;;5072256;28;20023;-69
2022/07/10 05:56:18;;;;;;;3.42;2.78;;;;;;;;;;5071801;28;20016;-68
2022/07/10 05:58:44;;;;;;;7.28;3.20;;;;;;;;;;5072146;28;20028;-68
2022/07/10 06:01:11;;;;;;;4.32;3.38;;;;;;;;;;5072066;28;20019;-68
2022/07/10 06:03:37;;;;;;;6.53;3.22;;;;;;;;;;5072554;28;20038;-68
2022/07/10 06:06:03;;;;;;;4.70;3.35;;;;;;;;;;5071909;28;20069;-68
2022/07/10 06:08:30;;;;;;;5.72;3.10;;;;;;;;;;5071503;28;20394;-69
2022/07/10 06:10:56;;;;;;;3.70;3.30;;;;;;;;;;5071785;28;20020;-68
2022/07/10 06:13:22;;;;;;;5.53;3.13;;;;;;;;;;5069147;28;20477;-68
2022/07/10 06:15:48;;;;;;;4.80;2.80;;;;;;;;;;5070867;28;20086;-67
2022/07/10 06:18:15;;;;;;;3.42;2.95;;;;;;;;;;5072270;28;20085;-67
2022/07/10 06:20:41;;;;;;;5.88;2.90;;;;;;;;;;5071137;28;20012;-68
2022/07/10 06:23:07;;;;;;;4.03;3.08;;;;;;;;;;5071615;28;20090;-68
2022/07/10 06:25:34;;;;;;;7.13;3.33;;;;;;;;;;5071505;28;20487;-67
2022/07/10 06:28:00;;;;;;;7.22;2.97;;;;;;;;;;5071301;28;20029;-68
2022/07/10 06:30:26;;;;;;;5.18;3.55;;;;;;;;;;5072809;28;20457;-68
2022/07/10 06:32:52;;;;;;;9.88;3.40;;;;;;;;;;5070807;28;20030;-68
2022/07/10 06:35:19;;;;;;;6.43;3.35;;;;;;;;;;5070991;28;20474;-68
2022/07/10 06:37:45;;;;;;;4.50;2.65;;;;;;;;;;5070729;28;20024;-67
2022/07/10 06:40:15;;;;;;;7.53;2.97;;;;;;;;;;5071092;28;20039;-69
2022/07/10 06:42:41;;;;;;;7.00;2.95;;;;;;;;;;5071997;28;20021;-69
2022/07/10 06:45:07;;;;;;;3.78;2.88;;;;;;;;;;5070935;28;20074;-68
2022/07/10 06:50:19;;;;;;;5.93;2.60;;;;;;;;;;5070066;28;20501;-69
2022/07/10 06:52:45;;;;;;;2.83;2.42;;;;;;;;;;5070580;28;20039;-69
2022/07/10 06:55:11;;;;;;;4.28;2.47;;;;;;;;;;5070900;28;20028;-69
2022/07/10 06:57:39;;;;;;;6.15;2.75;;;;;;;;;;5072138;28;20292;-69
2022/07/10 07:00:06;;;;;;;3.45;2.38;;;;;;;;;;5070509;28;20027;-69
2022/07/10 07:02:32;;;;;;;4.47;2.20;;;;;;;;;;5070236;28;20021;-69
2022/07/10 07:04:59;;;;;;;3.47;2.22;;;;;;;;;;5070043;28;20023;-69
2022/07/10 07:07:25;;;;;;;4.70;2.40;;;;;;;;;;5070204;28;20036;-69
2022/07/10 07:09:52;;;;;;;2.85;2.22;;;;;;;;;;5070407;28;20097;-68
2022/07/10 07:12:18;;;;;;;4.22;2.03;;;;;;;;;;5071111;28;20481;-69
2022/07/10 07:14:44;;;;;;;6.78;1.98;;;;;;;;;;5068610;28;20035;-68
2022/07/10 07:17:13;;;;;;;4.43;1.75;;;;;;;;;;5069665;28;20051;-68
2022/07/10 07:25:10;;;;;;;9.85;1.95;;;;;;;;;;5068095;28;20035;-68
2022/07/10 07:27:37;;;;;;;7.18;1.70;;;;;;;;;;5071727;28;20388;-68
2022/07/10 07:30:04;;;;;;;4.22;1.70;;;;;;;;;;5070000;28;20021;-69
2022/07/10 07:32:31;;;;;;;4.50;1.73;;;;;;;;;;5069484;28;20023;-69
2022/07/10 07:34:57;;;;;;;4.93;1.50;;;;;;;;;;5069600;28;20017;-69
2022/07/10 07:37:24;;;;;;;3.92;1.90;;;;;;;;;;5069764;28;20459;-69
2022/07/10 07:39:50;;;;;;;4.30;1.88;;;;;;;;;;5070916;28;20025;-69
2022/07/10 07:42:16;;;;;;;2.45;1.42;;;;;;;;;;5070666;28;20498;-68
2022/07/10 07:44:42;;;;;;;3.60;1.70;;;;;;;;;;5069186;28;20124;-68
2022/07/10 07:47:09;;;;;;;2.47;1.55;;;;;;;;;;5069668;28;20024;-69
2022/07/10 07:49:35;;;;;;;3.35;1.80;;;;;;;;;;5069510;28;20017;-69
2022/07/10 07:52:02;;;;;;;9.63;1.88;;;;;;;;;;5069429;28;20511;-69
2022/07/10 07:54:28;;;;;;;6.53;1.45;;;;;;;;;;5071246;28;20029;-69
2022/07/10 07:56:54;;;;;;;2.53;1.27;;;;;;;;;;5069328;28;20032;-69
2022/07/10 07:59:20;;;;;;;3.58;1.30;;;;;;;;;;5069120;28;20028;-69
2022/07/10 08:01:47;;;;;;;2.22;1.27;;;;;;;;;;5069377;28;20023;-68
2022/07/10 08:04:13;;;;;;;3.75;1.27;;;;;;;;;;5069470;28;20400;-69
2022/07/10 08:06:39;;;;;;;2.60;1.30;;;;;;;;;;5071222;28;20089;-68
2022/07/10 08:09:06;;;;;;;3.00;1.30;;;;;;;;;;5069600;28;20497;-69
2022/07/10 08:11:32;;;;;;;2.20;1.23;;;;;;;;;;5068852;28;20031;-69
2022/07/10 08:13:58;;;;;;;2.35;1.10;;;;;;;;;;5069091;28;20017;-69
2022/07/10 08:16:25;;;;;;;2.95;1.30;;;;;;;;;;5069262;28;20036;-69
2022/07/10 08:18:51;;;;;;;1.52;1.20;;;;;;;;;;5069917;28;20503;-69
2022/07/10 08:21:17;;;;;;;3.38;1.30;;;;;;;;;;5073595;28;20025;-69
2022/07/10 08:23:44;;;;;;;2.30;1.17;;;;;;;;;;5072084;28;20057;-69
2022/07/10 08:26:10;;;;;;;1.13;0.90;;;;;;;;;;5073461;28;20024;-69
2022/07/10 08:28:36;;;;;;;2.38;1.00;;;;;;;;;;5072977;28;20016;-69
2022/07/10 08:31:03;;;;;;;2.05;1.08;;;;;;;;;;5073356;28;20024;-69
2022/07/10 08:33:29;;;;;;;1.95;0.88;;;;;;;;;;5075135;28;20016;-69
2022/07/10 08:35:58;;;;;;;2.53;1.17;;;;;;;;;;5073236;28;20027;-69
2022/07/10 08:38:25;;;;;;;4.95;1.10;;;;;;;;;;5072835;28;20036;-69
2022/07/10 08:40:57;;;;;;;2.08;1.20;;;;;;;;;;5073371;28;20016;-69
2022/07/10 08:43:24;;;;;;;3.28;1.23;;;;;;;;;;5072711;28;20020;-69
2022/07/10 08:45:51;;;;;;;3.58;0.95;;;;;;;;;;5073771;28;20462;-69
2022/07/10 08:48:21;;;;;;;1.00;0.93;;;;;;;;;;5074321;28;20027;-69
2022/07/10 08:50:48;;;;;;;3.03;1.50;;;;;;;;;;5070495;28;20481;-69
2022/07/10 08:53:19;;;;;;;2.50;1.00;;;;;;;;;;5072864;28;20032;-69
2022/07/10 08:55:47;;;;;;;3.22;1.20;;;;;;;;;;5072574;28;20021;-69
2022/07/10 08:58:13;;;;;;;4.68;1.00;;;;;;;;;;5072353;28;20041;-69
2022/07/10 09:00:40;;;;;;;1.23;0.90;;;;;;;;;;5074146;28;20017;-69
2022/07/10 09:03:08;;;;;;;1.65;0.95;;;;;;;;;;5072709;28;20025;-69
2022/07/10 09:05:35;;;;;;;4.13;1.10;;;;;;;;;;5072754;28;20023;-69
2022/07/10 09:08:02;;;;;;;2.25;0.98;;;;;;;;;;5072287;28;20044;-69
2022/07/10 09:10:29;;;;;;;2.15;1.00;;;;;;;;;;5069927;28;20019;-69
2022/07/10 09:12:59;;;;;;;2.03;0.98;;;;;;;;;;5073298;28;20028;-69
2022/07/10 09:15:27;;;;;;;2.22;0.90;;;;;;;;;;5074098;28;20042;-69
2022/07/10 09:17:54;;;;;;;3.45;0.85;;;;;;;;;;5072267;28;20039;-69
2022/07/10 09:20:40;;;;;;;2.60;0.90;;;;;;;;;;5072180;28;20396;-69
2022/07/10 09:23:10;;;;;;;1.70;0.98;;;;;;;;;;5071634;28;20481;-69
2022/07/10 09:25:36;;;;;;;2.73;1.27;;;;;;;;;;5072101;28;20033;-69
2022/07/10 09:28:05;;;;;;;1.70;0.70;;;;;;;;;;5071955;28;20037;-69
2022/07/10 09:30:41;;;;;;;1.35;0.80;;;;;;;;;;5074141;28;20035;-69
2022/07/10 09:33:23;;;;;;;1.50;1.05;;;;;;;;;;5072056;28;20024;-69
2022/07/10 09:36:12;;;;;;;2.13;1.00;;;;;;;;;;5069491;28;20025;-69
2022/07/10 09:38:44;;;;;;;3.58;0.88;;;;;;;;;;5085717;28;20036;-69
2022/07/10 09:41:21;;;;;;;1.58;0.80;;;;;;;;;;5068658;28;20033;-70
2022/07/10 09:43:49;;;;;;;2.08;1.00;;;;;;;;;;5071384;28;20093;-68
2022/07/10 09:46:16;;;;;;;2.55;0.95;;;;;;;;;;5071786;28;20067;-68
2022/07/10 09:48:43;;;;;;;1.40;0.90;;;;;;;;;;5073477;28;20024;-68
2022/07/10 09:51:10;;;;;;;0.93;0.90;;;;;;;;;;5071900;28;20097;-69
2022/07/10 09:53:40;;;;;;;7.05;0.88;;;;;;;;;;5071328;28;20016;-69
2022/07/10 09:56:07;;;;;;;;;;;;;;;;;;5071330;28;20029;-69
2022/07/10 09:58:35;;;;;;;2.88;1.00;;;;;;;;;;5071203;28;19913;-69
2022/07/10 10:01:05;;;;;;;1.27;0.93;;;;;;;;;;5071644;28;20374;-69
2022/07/10 10:03:31;;;;;;;;;;;;;;;;;;5073512;28;20013;-69
2022/07/10 10:06:17;;;;;;;1.45;0.82;;;;;;;;;;5071094;28;19910;-70
2022/07/10 10:09:05;;;;;;;0.60;0.60;;;;;;;;;;5069854;28;20086;-69
2022/07/10 10:11:32;;;;;;;1.73;0.98;;;;;;;;;;5083701;28;20031;-69
2022/07/10 10:13:59;;;;;;;0.77;0.60;;;;;;;;;;5070810;28;20103;-70
2022/07/10 10:16:26;;;;;;;0.88;0.73;;;;;;;;;;5070610;28;20032;-70
2022/07/10 10:21:37;;;;;;;1.33;0.68;;;;;;;;;;5070996;28;20029;-69
2022/07/10 10:24:04;;;;;;;2.47;0.73;;;;;;;;;;5070507;28;20024;-70
2022/07/10 10:26:30;;;;;;;0.85;0.65;;;;;;;;;;5070066;28;20024;-70
2022/07/10 10:28:58;;;;;;;1.67;0.80;;;;;;;;;;5070534;28;20050;-69
2022/07/10 10:31:25;;;;;;;1.58;0.90;;;;;;;;;;5071765;28;20030;-68
2022/07/10 10:33:55;;;;;;;0.95;0.68;;;;;;;;;;5069287;28;20025;-69
2022/07/10 10:36:36;;;;;;;3.72;0.85;;;;;;;;;;5071261;28;20055;-70
2022/07/10 10:39:04;;;;;;;2.67;0.85;;;;;;;;;;5069447;28;20025;-70
2022/07/10 10:41:36;;;;;;;1.70;0.68;;;;;;;;;;5069969;28;20033;-69
2022/07/10 10:44:09;;;;;;;0.82;0.75;;;;;;;;;;5068960;28;20396;-70
2022/07/10 10:46:36;;;;;;;1.13;0.68;;;;;;;;;;5068021;28;20042;-70
2022/07/10 10:49:08;;;;;;;1.17;0.70;;;;;;;;;;5070332;28;20482;-70
2022/07/10 10:51:53;;;;;;;2.88;0.70;;;;;;;;;;5072376;28;20501;-70
2022/07/10 10:54:19;;;;;;;1.35;0.70;;;;;;;;;;5071623;28;20028;-70
2022/07/10 10:56:46;;;;;;;0.80;0.80;;;;;;;;;;5069412;28;20477;-70
2022/07/10 10:59:32;;;;;;;3.40;0.90;;;;;;;;;;5066798;28;20028;-69
2022/07/10 11:02:17;;;;;;;2.20;0.80;;;;;;;;;;5067535;28;20474;-70
2022/07/10 11:04:43;;;;;;;1.75;0.88;;;;;;;;;;5068299;28;20496;-70
2022/07/10 11:07:10;;;;;;;5.65;1.88;;;;;;;;;;5067958;28;20024;-69
2022/07/10 11:09:36;;;;;;;1.63;0.85;;;;;;;;;;5069354;28;20051;-70
2022/07/10 11:12:06;;;;;;;4.85;2.42;;;;;;;;;;5069533;28;20024;-70
2022/07/10 11:14:37;;;;;;;3.13;0.97;;;;;;;;;;5069061;28;20481;-70
2022/07/10 11:17:04;;;;;;;5.05;0.90;;;;;;;;;;5068785;28;20298;-70
2022/07/10 11:19:31;;;;;;;0.55;0.55;;;;;;;;;;5070533;28;20377;-70
2022/07/10 11:22:07;;;;;;;0.45;0.40;;;;;;;;;;5070096;28;20021;-70
2022/07/10 11:24:52;;;;;;;1.13;0.45;;;;;;;;;;5071415;28;20366;-70
2022/07/10 11:27:21;;;;;;;2.45;0.68;;;;;;;;;;5071542;28;20488;-70
2022/07/10 11:29:56;;;;;;;1.75;0.70;;;;;;;;;;5070422;28;20026;-70
2022/07/10 11:32:23;;;;;;;1.08;0.45;;;;;;;;;;5070167;28;20029;-70
2022/07/10 11:34:50;;;;;;;0.55;0.55;;;;;;;;;;5069093;28;20070;-69
2022/07/10 11:37:16;;;;;;;3.20;0.80;;;;;;;;;;5069891;28;20035;-70
2022/07/10 11:39:43;;;;;;;2.10;0.70;;;;;;;;;;5071010;28;20024;-70
2022/07/10 11:42:09;;;;;;;3.03;0.77;;;;;;;;;;5070721;28;20489;-70
2022/07/10 11:44:36;;;;;;;1.25;0.70;;;;;;;;;;5070069;28;20020;-69
2022/07/10 11:47:03;;;;;;;1.73;0.75;;;;;;;;;;5070184;28;20043;-69
2022/07/10 11:49:29;;;;;;;1.60;0.80;;;;;;;;;;5070180;28;20017;-70
2022/07/10 11:52:01;;;;;;;1.42;0.90;;;;;;;;;;5069973;28;20029;-70
2022/07/10 11:54:27;;;;;;;1.33;1.08;;;;;;;;;;5071212;28;20020;-69
2022/07/10 11:56:54;;;;;;;1.60;0.70;;;;;;;;;;5068624;28;20031;-70
2022/07/10 11:59:27;;;;;;;1.30;0.65;;;;;;;;;;5070197;28;20031;-70
2022/07/10 12:01:54;;;;;;;2.75;0.70;;;;;;;;;;5070292;28;20017;-69
2022/07/10 12:04:25;;;;;;;2.50;0.70;;;;;;;;;;5069739;28;20074;-70
2022/07/10 12:06:53;;;;;;;0.75;0.60;;;;;;;;;;5069699;28;20020;-70
2022/07/10 12:09:20;;;;;;;1.25;0.80;;;;;;;;;;5071004;28;20055;-70
2022/07/10 12:12:00;;;;;;;1.23;0.70;;;;;;;;;;5069919;28;20031;-70
2022/07/10 12:14:26;;;;;;;3.45;0.80;;;;;;;;;;5068942;28;20046;-69
2022/07/10 12:16:53;;;;;;;0.65;0.60;;;;;;;;;;5069564;28;20025;-69
2022/07/10 12:19:22;;;;;;;1.65;0.73;;;;;;;;;;5069812;28;20017;-69
2022/07/10 12:21:49;;;;;;;2.20;0.75;;;;;;;;;;5069927;28;20021;-68
2022/07/10 12:24:23;;;;;;;2.00;1.05;;;;;;;;;;5070850;28;20025;-69
2022/07/10 12:26:51;;;;;;;1.05;0.93;;;;;;;;;;5069912;28;20502;-70
2022/07/10 12:29:21;;;;;;;1.83;0.80;;;;;;;;;;5069945;28;20027;-69
2022/07/10 12:31:50;;;;;;;3.10;0.75;;;;;;;;;;5069801;28;20515;-70
2022/07/10 12:34:17;;;;;;;1.67;0.82;;;;;;;;;;5067516;28;20065;-69
2022/07/10 12:36:47;;;;;;;2.42;0.70;;;;;;;;;;5070166;28;20021;-70
2022/07/10 12:39:15;;;;;;;5.25;1.02;;;;;;;;;;5070635;28;20041;-70
2022/07/10 12:41:57;;;;;;;1.40;0.70;;;;;;;;;;5068406;28;20514;-70
2022/07/10 12:44:37;;;;;;;1.52;0.90;;;;;;;;;;5067896;28;20498;-70
2022/07/10 12:47:09;;;;;;;0.88;0.80;;;;;;;;;;5067874;28;20024;-70
2022/07/10 12:50:08;;;;;;;4.25;0.90;;;;;;;;;;5066319;28;20081;-70
2022/07/10 12:52:35;;;;;;;0.85;0.75;;;;;;;;;;5047865;28;20072;-70
2022/07/10 12:55:10;;;;;;;1.85;0.95;;;;;;;;;;5047932;28;20215;-70
2022/07/10 12:57:46;;;;;;;2.83;1.08;;;;;;;;;;5048586;28;20025;-70
2022/07/10 13:00:13;;;;;;;1.52;0.90;;;;;;;;;;5048185;28;20389;-70
2022/07/10 13:02:40;;;;;;;2.70;1.00;;;;;;;;;;5047946;28;20048;-70
2022/07/10 13:05:06;;;;;;;2.10;0.85;;;;;;;;;;5047652;28;20032;-70
2022/07/10 13:07:34;;;;;;;1.50;0.80;;;;;;;;;;5050166;28;20035;-69
2022/07/10 13:10:04;;;;;;;0.60;0.60;;;;;;;;;;5051310;28;20591;-70
2022/07/10 13:12:30;;;;;;;2.15;0.90;;;;;;;;;;5035489;28;20032;-70
2022/07/10 13:14:57;;;;;;;2.03;0.90;;;;;;;;;;5049961;28;20586;-70
2022/07/10 13:17:23;;;;;;;1.50;0.93;;;;;;;;;;5051547;28;20047;-69
2022/07/10 13:19:51;;;;;;;2.05;0.80;;;;;;;;;;5039455;28;20021;-70
2022/07/10 13:22:17;;;;;;;2.80;0.70;;;;;;;;;;5051186;28;20036;-70
2022/07/10 13:24:44;;;;;;;4.18;0.75;;;;;;;;;;5051514;28;20020;-69
2022/07/10 13:27:10;;;;;;;1.40;0.93;;;;;;;;;;5051774;28;20027;-69
2022/07/10 13:29:36;;;;;;;2.03;0.88;;;;;;;;;;5069682;28;20016;-69
2022/07/10 13:32:03;;;;;;;1.25;0.75;;;;;;;;;;5071604;28;20469;-69
2022/07/10 13:34:29;;;;;;;2.13;0.75;;;;;;;;;;5072098;28;20034;-69
2022/07/10 13:36:56;;;;;;;3.70;0.90;;;;;;;;;;5072685;28;20035;-69
2022/07/10 13:39:22;;;;;;;1.73;0.82;;;;;;;;;;5071878;28;20431;-70
2022/07/10 13:41:49;;;;;;;1.05;0.93;;;;;;;;;;5072476;28;20424;-69
2022/07/10 13:44:15;;;;;;;1.13;0.90;;;;;;;;;;5072141;28;20024;-70
2022/07/10 13:46:41;;;;;;;1.63;0.70;;;;;;;;;;5072916;28;20031;-70
2022/07/10 13:49:07;;;;;;;1.45;0.95;;;;;;;;;;5072106;28;20021;-70
2022/07/10 13:51:34;;;;;;;1.83;0.95;;;;;;;;;;5073712;28;20065;-70
2022/07/10 13:54:00;;;;;;;1.23;0.80;;;;;;;;;;5072222;28;20370;-70
2022/07/10 13:56:26;;;;;;;0.80;0.80;;;;;;;;;;5072241;28;20028;-70
2022/07/10 13:58:53;;;;;;;1.00;0.85;;;;;;;;;;5070852;28;20036;-70
2022/07/10 14:01:19;;;;;;;1.20;0.88;;;;;;;;;;5072421;28;20027;-70
2022/07/10 14:03:46;;;;;;;0.95;0.63;;;;;;;;;;5072339;28;20051;-70
2022/07/10 14:06:12;;;;;;;1.33;0.80;;;;;;;;;;5073107;28;20016;-70
2022/07/10 14:08:39;;;;;;;1.83;0.90;;;;;;;;;;5084699;28;20043;-70
2022/07/10 14:11:05;;;;;;;2.42;0.90;;;;;;;;;;5072087;28;20095;-70
2022/07/10 14:13:31;;;;;;;2.53;0.70;;;;;;;;;;5072139;28;20023;-70
2022/07/10 14:15:58;;;;;;;1.65;0.73;;;;;;;;;;5070266;28;20033;-70
2022/07/10 14:18:41;;;;;;;1.52;0.85;;;;;;;;;;5072408;28;20416;-70
2022/07/10 14:21:08;;;;;;;0.90;0.65;;;;;;;;;;5072141;28;20469;-69
2022/07/10 14:23:37;;;;;;;1.05;0.77;;;;;;;;;;5071854;28;20029;-70
2022/07/10 14:26:05;;;;;;;4.97;0.70;;;;;;;;;;5071653;28;20405;-70
2022/07/10 14:28:31;;;;;;;2.97;1.00;;;;;;;;;;5071780;28;20032;-70
2022/07/10 14:31:00;;;;;;;3.15;0.80;;;;;;;;;;5070999;28;20021;-70
2022/07/10 14:33:27;;;;;;;1.45;0.70;;;;;;;;;;5072795;28;20025;-70
2022/07/10 14:35:53;;;;;;;1.63;0.80;;;;;;;;;;5071375;28;20035;-70
2022/07/10 14:38:20;;;;;;;1.23;0.85;;;;;;;;;;5068749;28;20040;-70
2022/07/10 14:40:46;;;;;;;2.53;0.90;;;;;;;;;;5071721;28;20023;-70
2022/07/10 14:43:12;;;;;;;1.77;0.80;;;;;;;;;;5071327;28;20028;-70
2022/07/10 14:45:38;;;;;;;0.98;0.88;;;;;;;;;;5072381;28;20024;-70
2022/07/10 14:48:05;;;;;;;1.13;0.70;;;;;;;;;;5071014;28;20455;-70
2022/07/10 14:50:32;;;;;;;1.38;0.90;;;;;;;;;;5071295;28;20028;-69
2022/07/10 14:52:58;;;;;;;2.88;0.77;;;;;;;;;;5070840;28;20016;-70
2022/07/10 14:55:24;;;;;;;1.63;0.70;;;;;;;;;;5070599;28;20021;-70
2022/07/10 14:57:51;;;;;;;2.72;0.90;;;;;;;;;;5071142;28;20062;-70
2022/07/10 15:00:18;;;;;;;1.23;0.80;;;;;;;;;;5071735;28;20021;-70
2022/07/10 15:02:45;;;;;;;2.42;0.90;;;;;;;;;;5071161;28;20013;-70